Terminal Aerodrome Forecast
Issued by NWS Cleveland, OH

Home | Current Version | Previous Version | Text Only | Print | Product List | Glossary On
Versions: 1 2 3 4 5 6 7 8 9 10 11 12 13
000
FTUS41 KCLE 241445 AAA
TAFMFD
TAF AMD
KMFD 241445Z 2415/2512 11011KT 5SM -SHRA BR SCT009 OVC015
     FM250000 07006KT 6SM BR VCSH SCT007 OVC015
      TEMPO 2500/2504 2SM -RA BR BKN007 OVC015
     FM250400 04004KT 4SM BR SCT003 OVC007
     FM250800 01004KT 4SM BR OVC003=

USA.gov is the U.S. government's official web portal to all federal, state and local government web resources and services.